createdAt,value
2023-03-06T22:08:51.791Z,-5.10
2023-03-06T22:11:20.805Z,-5.20
2023-03-06T22:13:48.842Z,-5.30
2023-03-06T22:16:16.529Z,-5.30
2023-03-06T22:18:47.447Z,-5.30
2023-03-06T22:21:16.735Z,-5.40
2023-03-06T22:23:43.770Z,-5.40
2023-03-06T22:26:12.877Z,-5.50
2023-03-06T22:28:40.990Z,-5.50
2023-03-06T22:31:23.993Z,-5.50
2023-03-06T22:33:55.131Z,-5.60
2023-03-06T22:36:22.531Z,-5.60
2023-03-06T22:38:49.684Z,-5.70
2023-03-06T22:41:18.246Z,-5.80
2023-03-06T22:43:45.149Z,-5.80
2023-03-06T22:46:14.418Z,-5.80
2023-03-06T22:48:41.651Z,-5.70
2023-03-06T22:51:11.179Z,-5.80
2023-03-06T22:53:38.716Z,-5.80
2023-03-06T22:56:08.017Z,-5.80
2023-03-06T22:58:37.528Z,-5.80
2023-03-06T23:01:27.724Z,-5.90
2023-03-06T23:03:59.639Z,-5.90
2023-03-06T23:06:32.897Z,-6.00
2023-03-06T23:09:01.464Z,-6.00
2023-03-06T23:11:29.418Z,-6.00
2023-03-06T23:13:57.261Z,-6.10
2023-03-06T23:16:25.090Z,-6.20
2023-03-06T23:18:53.192Z,-6.20
2023-03-06T23:21:21.694Z,-6.20
2023-03-06T23:23:50.470Z,-6.20
2023-03-06T23:26:19.616Z,-6.20
2023-03-06T23:28:46.663Z,-6.30
2023-03-06T23:31:16.654Z,-6.30
2023-03-06T23:33:43.998Z,-6.40
2023-03-06T23:36:13.426Z,-6.50
2023-03-06T23:38:40.748Z,-6.50
2023-03-06T23:41:16.595Z,-6.50
2023-03-06T23:43:43.930Z,-6.50
2023-03-06T23:46:11.294Z,-6.50
2023-03-06T23:48:40.717Z,-6.50
2023-03-06T23:51:15.968Z,-6.50
2023-03-06T23:53:46.691Z,-6.50
2023-03-06T23:56:14.294Z,-6.40
2023-03-06T23:58:41.267Z,-6.40
